Orbital elements of FENGYUN 1C DEB
| Launched | 9 May 1999 |
| Flight ended | – |
| Launch site | Taiyuan Space Center, PRC |
| Owner | People's Republic of China |
| NORAD ID | 31663 |
| Date fetched |
Epoch osculation |
Inc. [°] |
Ecc. | RA asc node [hr] |
Arg Peri. [°] |
Mean anom [°] |
Mean motion [rev/day] |
Abs. mag |
| Date fetched |
Epoch osculation |
Inc. [°] |
Ecc. | RA asc node [hr] |
Arg Peri. [°] |
Mean anom [°] |
Mean motion [rev/day] |
Abs. mag |
| 2026 May 05 17:57 | 2026 May 05 13:00:10 | 98.8395 | 0.01890 | 3.4724 | 144.6928 | 216.6969 | 14.77216 | – |
| 2026 May 04 17:57 | 2026 Apr 30 12:42:08 | 98.8397 | 0.01888 | 3.1062 | 160.4386 | 216.6969 | 14.77216 | – |
| 2026 May 03 17:57 | 2026 Apr 30 12:42:08 | 98.8397 | 0.01888 | 3.1062 | 160.4386 | 216.6969 | 14.77216 | – |
| 2026 May 02 17:57 | 2026 Apr 30 12:42:08 | 98.8397 | 0.01888 | 3.1062 | 160.4386 | 216.6969 | 14.77216 | – |
| 2026 May 01 17:56 | 2026 Apr 30 12:42:08 | 98.8397 | 0.01888 | 3.1062 | 160.4386 | 216.6969 | 14.77216 | – |
| 2026 Apr 30 17:56 | 2026 Apr 30 12:42:08 | 98.8397 | 0.01888 | 3.1062 | 160.4386 | 216.6969 | 14.77216 | – |
| 2026 Apr 29 17:57 | 2026 Apr 22 01:29:18 | 98.8391 | 0.01883 | 2.4877 | 187.0968 | 216.6969 | 14.77216 | – |
| 2026 Apr 28 17:56 | 2026 Apr 22 01:29:18 | 98.8391 | 0.01883 | 2.4877 | 187.0968 | 216.6969 | 14.77216 | – |
| 2026 Apr 27 17:58 | 2026 Apr 22 01:29:18 | 98.8391 | 0.01883 | 2.4877 | 187.0968 | 216.6969 | 14.77216 | – |
| 2026 Apr 26 17:58 | 2026 Apr 22 01:29:18 | 98.8391 | 0.01883 | 2.4877 | 187.0968 | 216.6969 | 14.77216 | – |
| 2026 Apr 25 17:58 | 2026 Apr 22 01:29:18 | 98.8391 | 0.01883 | 2.4877 | 187.0968 | 216.6969 | 14.77216 | – |
| 2026 Apr 24 17:59 | 2026 Apr 22 01:29:18 | 98.8391 | 0.01883 | 2.4877 | 187.0968 | 216.6969 | 14.77216 | – |
| 2026 Apr 23 17:57 | 2026 Apr 19 00:19:51 | 98.8389 | 0.01881 | 2.2650 | 196.6953 | 216.6969 | 14.77216 | – |
| 2026 Apr 22 17:57 | 2026 Apr 19 00:19:51 | 98.8389 | 0.01881 | 2.2650 | 196.6953 | 216.6969 | 14.77216 | – |
| 2026 Apr 21 17:57 | 2026 Apr 19 00:19:51 | 98.8389 | 0.01881 | 2.2650 | 196.6953 | 216.6969 | 14.77216 | – |
| 2026 Apr 20 17:57 | 2026 Apr 19 00:19:51 | 98.8389 | 0.01881 | 2.2650 | 196.6953 | 216.6969 | 14.77216 | – |
| 2026 Apr 19 17:58 | 2026 Apr 19 00:19:51 | 98.8389 | 0.01881 | 2.2650 | 196.6953 | 216.6969 | 14.77216 | – |
| 2026 Apr 18 17:56 | 2026 Apr 12 13:53:10 | 98.8382 | 0.01878 | 1.7949 | 217.0154 | 216.6969 | 14.77216 | – |
| 2026 Apr 16 17:57 | 2026 Apr 12 13:53:10 | 98.8382 | 0.01878 | 1.7949 | 217.0154 | 216.6969 | 14.77216 | – |
| 2026 Apr 14 17:57 | 2026 Apr 12 13:53:10 | 98.8382 | 0.01878 | 1.7949 | 217.0154 | 216.6969 | 14.77216 | – |
| 2026 Apr 13 17:57 | 2026 Apr 12 13:53:10 | 98.8382 | 0.01878 | 1.7949 | 217.0154 | 216.6969 | 14.77216 | – |
| 2026 Apr 12 17:57 | 2026 Apr 08 12:20:30 | 98.8381 | 0.01876 | 1.4981 | 229.8788 | 216.6969 | 14.77216 | – |
| 2026 Apr 11 17:57 | 2026 Apr 08 12:20:30 | 98.8381 | 0.01876 | 1.4981 | 229.8788 | 216.6969 | 14.77216 | – |
| 2026 Apr 10 17:58 | 2026 Apr 08 12:20:30 | 98.8381 | 0.01876 | 1.4981 | 229.8788 | 216.6969 | 14.77216 | – |
| 2026 Apr 09 18:01 | 2026 Apr 08 12:20:30 | 98.8381 | 0.01876 | 1.4981 | 229.8788 | 216.6969 | 14.77216 | – |
| 2026 Apr 08 17:57 | 2026 Apr 08 12:20:30 | 98.8381 | 0.01876 | 1.4981 | 229.8788 | 216.6969 | 14.77216 | – |